createdAt,value
2022-08-22T00:01:46.094Z,3.40
2022-08-22T00:02:53.747Z,2.53
2022-08-22T00:02:59.227Z,3.83
2022-08-22T00:03:10.645Z,2.72
2022-08-22T00:04:20.400Z,3.17
2022-08-22T00:06:56.849Z,3.30
2022-08-22T00:09:32.351Z,3.05
2022-08-22T00:12:07.989Z,3.58
2022-08-22T00:14:41.499Z,2.35
2022-08-22T00:17:38.475Z,3.20
2022-08-22T00:22:42.524Z,2.95
2022-08-22T00:25:47.194Z,3.00
2022-08-22T00:28:18.916Z,3.00
2022-08-22T00:33:34.894Z,2.42
2022-08-22T00:36:14.994Z,3.08
2022-08-22T00:38:47.782Z,2.80
2022-08-22T00:41:28.614Z,2.97
2022-08-22T00:44:37.824Z,3.20
2022-08-22T00:47:26.284Z,3.15
2022-08-22T00:50:24.059Z,3.00
2022-08-22T00:53:11.544Z,3.28
2022-08-22T00:55:50.228Z,2.30
2022-08-22T00:59:00.262Z,2.92
2022-08-22T01:01:52.477Z,2.88
2022-08-22T01:04:40.164Z,3.00
2022-08-22T01:07:21.144Z,3.00
2022-08-22T01:10:02.375Z,3.28
2022-08-22T01:12:57.949Z,3.38
2022-08-22T01:15:28.984Z,3.22
2022-08-22T01:18:12.444Z,2.67
2022-08-22T01:21:08.338Z,3.10
2022-08-22T01:24:26.430Z,3.10
2022-08-22T01:27:33.496Z,2.80
2022-08-22T01:30:19.941Z,2.97
2022-08-22T01:33:36.246Z,3.00
2022-08-22T01:36:23.230Z,3.13
2022-08-22T01:39:11.043Z,3.45
2022-08-22T01:42:04.042Z,3.20
2022-08-22T01:45:02.452Z,2.83
2022-08-22T01:47:37.649Z,3.00
2022-08-22T01:50:17.405Z,2.97
2022-08-22T01:52:50.095Z,3.45
2022-08-22T01:55:26.566Z,3.10
2022-08-22T01:57:56.311Z,3.00
2022-08-22T02:00:34.789Z,3.00
2022-08-22T02:03:13.263Z,3.55
2022-08-22T02:05:52.292Z,2.67
2022-08-22T02:08:30.459Z,3.40
2022-08-22T02:11:05.106Z,3.22
2022-08-22T02:13:54.465Z,2.90
2022-08-22T02:16:32.161Z,3.00
2022-08-22T02:19:26.237Z,2.90
2022-08-22T02:22:01.834Z,2.90
2022-08-22T02:24:50.989Z,3.05
2022-08-22T02:27:31.562Z,2.95
2022-08-22T02:30:08.041Z,2.80
2022-08-22T02:32:45.841Z,3.00
2022-08-22T02:35:24.191Z,2.25
2022-08-22T02:38:04.594Z,2.53
2022-08-22T02:40:39.197Z,2.72
2022-08-22T02:43:16.423Z,2.40
2022-08-22T02:45:49.251Z,2.85
2022-08-22T02:48:33.835Z,3.10
2022-08-22T02:51:10.491Z,2.97
2022-08-22T02:53:44.916Z,2.42
2022-08-22T02:56:19.591Z,2.53
2022-08-22T02:58:53.443Z,2.60
2022-08-22T03:01:40.861Z,2.67
2022-08-22T03:04:44.952Z,2.83
2022-08-22T03:07:23.114Z,2.90
2022-08-22T03:10:01.671Z,2.70
2022-08-22T03:15:09.791Z,2.20
2022-08-22T03:17:47.537Z,2.67
2022-08-22T03:20:22.745Z,2.13
2022-08-22T03:22:56.401Z,2.33
2022-08-22T03:25:36.778Z,2.28
2022-08-22T03:28:10.604Z,2.53
2022-08-22T03:30:42.977Z,2.58
2022-08-22T03:35:59.689Z,2.10
2022-08-22T03:38:39.453Z,2.03
2022-08-22T03:41:24.548Z,2.10
2022-08-22T03:44:09.338Z,2.40
2022-08-22T03:47:02.740Z,2.10
2022-08-22T03:50:08.357Z,1.85
2022-08-22T03:53:05.526Z,2.30
2022-08-22T03:56:05.272Z,2.65
2022-08-22T03:59:09.949Z,2.33
2022-08-22T04:01:57.177Z,2.50
2022-08-22T04:05:03.285Z,2.05
2022-08-22T04:07:51.326Z,2.03
2022-08-22T04:10:48.565Z,2.17
2022-08-22T04:13:49.460Z,2.40
2022-08-22T04:16:50.255Z,2.10
2022-08-22T04:19:40.473Z,2.22
2022-08-22T04:22:25.563Z,2.20
2022-08-22T04:25:00.597Z,2.40
2022-08-22T04:27:36.796Z,2.20
2022-08-22T04:30:11.376Z,1.65
2022-08-22T04:32:44.846Z,2.08
2022-08-22T04:35:19.062Z,2.28
2022-08-22T04:37:52.360Z,2.10
2022-08-22T04:40:26.569Z,2.03
2022-08-22T04:42:58.963Z,2.03
2022-08-22T04:48:06.025Z,1.92
2022-08-22T04:50:42.996Z,2.20
2022-08-22T04:53:25.929Z,2.30
2022-08-22T04:56:07.138Z,1.77
2022-08-22T04:58:46.499Z,2.63
2022-08-22T05:01:20.309Z,1.90
2022-08-22T05:03:56.852Z,1.90
2022-08-22T05:06:28.507Z,2.15
2022-08-22T05:09:00.725Z,1.90
2022-08-22T05:11:29.785Z,2.03
2022-08-22T05:14:02.296Z,1.90
2022-08-22T05:16:36.201Z,1.75
2022-08-22T05:19:14.339Z,1.75
2022-08-22T05:21:45.784Z,1.60
2022-08-22T05:24:30.351Z,1.83
2022-08-22T05:27:04.130Z,1.77
2022-08-22T05:29:32.961Z,2.00
2022-08-22T05:32:03.559Z,1.45
2022-08-22T05:34:37.309Z,1.73
2022-08-22T05:37:09.917Z,2.35
2022-08-22T05:39:41.650Z,1.70
2022-08-22T05:44:41.118Z,1.90
2022-08-22T05:47:21.533Z,1.80
2022-08-22T05:49:58.909Z,1.90
2022-08-22T05:52:40.884Z,1.55
2022-08-22T05:55:22.965Z,1.90
2022-08-22T05:57:58.427Z,2.10
2022-08-22T06:00:30.284Z,1.95
2022-08-22T06:03:11.725Z,2.38
2022-08-22T06:05:45.138Z,1.80
2022-08-22T06:08:27.734Z,2.00
2022-08-22T06:11:02.639Z,1.90
2022-08-22T06:13:34.028Z,2.00
2022-08-22T06:16:09.907Z,2.35
2022-08-22T06:18:43.012Z,2.00
2022-08-22T06:21:18.258Z,2.22
2022-08-22T06:23:49.846Z,1.77
2022-08-22T06:26:20.691Z,2.10
2022-08-22T06:28:55.467Z,2.30
2022-08-22T06:31:27.953Z,2.25
2022-08-22T06:33:59.902Z,1.80
2022-08-22T06:36:33.166Z,1.92
2022-08-22T06:39:10.093Z,2.00
2022-08-22T06:41:45.117Z,1.85
2022-08-22T06:44:15.811Z,2.50
2022-08-22T06:46:46.419Z,2.00
2022-08-22T06:49:15.100Z,2.28
2022-08-22T06:51:46.101Z,2.00
2022-08-22T06:54:18.116Z,2.35
2022-08-22T06:56:48.881Z,2.20
2022-08-22T06:59:21.599Z,2.40
2022-08-22T07:01:54.689Z,2.78
2022-08-22T07:04:24.951Z,2.60
2022-08-22T07:06:55.819Z,2.53
2022-08-22T07:09:25.635Z,2.70
2022-08-22T07:11:54.849Z,2.50
2022-08-22T07:14:29.710Z,2.50
2022-08-22T07:17:00.533Z,2.33
2022-08-22T07:19:30.870Z,2.50
2022-08-22T07:22:13.477Z,2.42
2022-08-22T07:24:47.364Z,2.20
2022-08-22T07:27:27.526Z,2.20
2022-08-22T07:30:02.253Z,2.47
2022-08-22T07:32:41.851Z,1.90
2022-08-22T07:35:13.739Z,2.22
2022-08-22T07:37:59.316Z,1.95
2022-08-22T07:40:32.853Z,2.08
2022-08-22T07:43:09.099Z,2.38
2022-08-22T07:45:40.721Z,2.55
2022-08-22T07:51:03.703Z,3.15
2022-08-22T07:53:39.320Z,2.65
2022-08-22T07:56:09.741Z,2.50
2022-08-22T07:58:41.003Z,2.60
2022-08-22T08:01:11.052Z,2.80
2022-08-22T08:03:39.655Z,2.92
2022-08-22T08:06:09.447Z,3.00
2022-08-22T08:08:44.598Z,2.75
2022-08-22T08:11:16.901Z,2.50
2022-08-22T08:16:19.439Z,2.30
2022-08-22T08:18:48.311Z,2.40
2022-08-22T08:21:27.961Z,1.90
2022-08-22T08:23:59.034Z,2.40
2022-08-22T08:26:33.106Z,2.13
2022-08-22T08:29:06.355Z,2.30
2022-08-22T08:31:44.690Z,2.28
2022-08-22T08:34:18.869Z,2.70
2022-08-22T08:36:52.058Z,2.47
2022-08-22T08:39:25.584Z,2.00
2022-08-22T08:42:32.869Z,1.95
2022-08-22T08:45:24.354Z,2.28
2022-08-22T08:48:26.361Z,2.40
2022-08-22T08:51:08.323Z,2.40
2022-08-22T08:54:10.345Z,2.47
2022-08-22T08:56:51.688Z,2.28
2022-08-22T08:59:32.981Z,2.28
2022-08-22T09:02:20.357Z,1.90
2022-08-22T09:05:19.511Z,2.80
2022-08-22T09:08:31.076Z,2.30
2022-08-22T09:11:25.230Z,2.65
2022-08-22T09:14:14.123Z,2.45
2022-08-22T09:16:55.194Z,2.75
2022-08-22T09:19:49.837Z,2.80
2022-08-22T09:25:59.891Z,2.40
2022-08-22T09:28:34.907Z,2.50
2022-08-22T09:31:44.947Z,2.20
2022-08-22T09:34:25.439Z,3.63
2022-08-22T09:37:15.233Z,2.30
2022-08-22T09:39:52.688Z,1.92
2022-08-22T09:42:31.150Z,2.30
2022-08-22T09:45:39.607Z,2.10
2022-08-22T09:48:24.137Z,2.20
2022-08-22T09:51:28.729Z,2.20
2022-08-22T09:54:32.807Z,1.92
2022-08-22T09:57:14.480Z,1.90
2022-08-22T10:00:15.811Z,2.00
2022-08-22T10:02:51.959Z,1.92
2022-08-22T10:05:35.148Z,1.83
2022-08-22T10:08:19.645Z,2.08
2022-08-22T10:11:07.637Z,1.70
2022-08-22T10:14:00.646Z,2.08
2022-08-22T10:16:58.058Z,1.48
2022-08-22T10:19:32.481Z,1.63
2022-08-22T10:22:20.840Z,1.63
2022-08-22T10:24:59.427Z,1.67
2022-08-22T10:31:26.493Z,1.77
2022-08-22T10:34:33.166Z,1.85
2022-08-22T10:37:15.811Z,1.90
2022-08-22T10:39:58.012Z,2.08
2022-08-22T10:42:28.966Z,2.20
2022-08-22T10:45:36.177Z,2.30
2022-08-22T10:48:35.023Z,2.63
2022-08-22T10:51:34.056Z,2.50
2022-08-22T10:54:28.891Z,2.65
2022-08-22T10:57:14.667Z,3.17
2022-08-22T11:00:00.763Z,3.33
2022-08-22T11:02:44.846Z,3.42
2022-08-22T11:05:43.333Z,3.90
2022-08-22T11:08:47.384Z,4.40
2022-08-22T11:11:32.586Z,4.13
2022-08-22T11:14:19.696Z,4.30
2022-08-22T11:16:57.351Z,4.05
2022-08-22T11:19:43.247Z,4.47
2022-08-22T11:22:27.710Z,4.57
2022-08-22T11:25:29.285Z,4.63
2022-08-22T11:28:32.913Z,4.30
2022-08-22T11:31:12.688Z,4.90
2022-08-22T11:33:48.784Z,5.22
2022-08-22T11:36:33.032Z,4.55
2022-08-22T11:39:18.248Z,5.18
2022-08-22T11:41:57.653Z,4.93
2022-08-22T11:44:29.730Z,5.65
2022-08-22T11:47:01.127Z,6.65
2022-08-22T11:49:44.013Z,5.90
2022-08-22T11:52:25.015Z,5.38
2022-08-22T11:55:23.453Z,5.47
2022-08-22T11:58:02.831Z,5.68
2022-08-22T12:00:47.489Z,5.55
2022-08-22T12:03:46.169Z,6.47
2022-08-22T12:06:39.380Z,6.20
2022-08-22T12:09:29.745Z,6.05
2022-08-22T12:12:06.407Z,6.15
2022-08-22T12:14:42.840Z,5.72
2022-08-22T12:17:50.679Z,6.43
2022-08-22T12:20:31.734Z,6.45
2022-08-22T12:23:18.689Z,7.57
2022-08-22T12:26:02.827Z,7.45
2022-08-22T12:28:40.248Z,7.25
2022-08-22T12:31:17.108Z,7.60
2022-08-22T12:34:09.636Z,6.90
2022-08-22T12:37:11.895Z,7.18
2022-08-22T12:40:19.382Z,7.43
2022-08-22T12:45:45.511Z,7.30
2022-08-22T12:48:32.001Z,7.95
2022-08-22T12:51:17.359Z,7.65
2022-08-22T12:54:26.842Z,7.32
2022-08-22T12:57:03.164Z,6.80
2022-08-22T12:59:35.113Z,7.35
2022-08-22T13:02:14.393Z,7.72
2022-08-22T13:04:50.748Z,6.47
2022-08-22T13:07:24.378Z,7.13
2022-08-22T13:09:59.308Z,6.88
2022-08-22T13:12:31.975Z,6.95
2022-08-22T13:15:05.846Z,6.82
2022-08-22T13:17:42.780Z,7.22
2022-08-22T13:20:20.156Z,7.38
2022-08-22T13:22:47.864Z,7.70
2022-08-22T13:25:25.968Z,7.57
2022-08-22T13:30:30.363Z,7.65
2022-08-22T13:33:05.666Z,7.25
2022-08-22T13:35:52.341Z,7.35
2022-08-22T13:38:26.127Z,7.53
2022-08-22T13:40:57.979Z,7.55
2022-08-22T13:43:29.462Z,8.20
2022-08-22T13:46:01.863Z,8.30
2022-08-22T13:48:46.596Z,7.78
2022-08-22T13:51:23.057Z,8.13
2022-08-22T13:54:01.065Z,7.20
2022-08-22T13:56:44.033Z,6.82
2022-08-22T13:59:47.003Z,6.97
2022-08-22T14:02:31.109Z,7.57
2022-08-22T14:05:05.354Z,7.05
2022-08-22T14:07:38.611Z,7.38
2022-08-22T14:10:14.902Z,6.32
2022-08-22T14:13:04.846Z,7.03
2022-08-22T14:15:45.684Z,7.78
2022-08-22T14:18:30.335Z,7.00
2022-08-22T14:21:27.808Z,7.70
2022-08-22T14:23:58.859Z,8.20
2022-08-22T14:26:32.982Z,8.35
2022-08-22T14:29:12.340Z,8.80
2022-08-22T14:31:40.402Z,8.70
2022-08-22T14:34:13.756Z,8.98
2022-08-22T14:36:47.935Z,8.88
2022-08-22T14:39:26.168Z,8.35
2022-08-22T14:42:04.082Z,9.02
2022-08-22T14:44:40.488Z,9.02
2022-08-22T14:47:54.397Z,8.65
2022-08-22T14:50:09.578Z,9.57
2022-08-22T14:52:42.610Z,9.25
2022-08-22T14:55:23.508Z,9.13
2022-08-22T14:57:54.698Z,9.48
2022-08-22T15:00:37.696Z,9.38
2022-08-22T15:03:12.807Z,8.07
2022-08-22T15:05:45.728Z,8.45
2022-08-22T15:08:21.521Z,8.88
2022-08-22T15:11:07.530Z,8.80
2022-08-22T15:13:38.423Z,9.90
2022-08-22T15:16:17.577Z,9.93
2022-08-22T15:18:52.131Z,9.68
2022-08-22T15:21:25.398Z,10.13
2022-08-22T15:23:55.940Z,8.15
2022-08-22T15:26:28.178Z,9.52
2022-08-22T15:29:07.389Z,9.77
2022-08-22T15:31:40.685Z,8.95
2022-08-22T15:34:22.610Z,10.30
2022-08-22T15:37:22.428Z,11.05
2022-08-22T15:40:08.100Z,11.55
2022-08-22T15:42:42.148Z,11.10
2022-08-22T15:45:21.453Z,11.65
2022-08-22T15:47:54.043Z,12.40
2022-08-22T15:50:35.147Z,12.82
2022-08-22T15:53:18.870Z,12.65
2022-08-22T15:56:27.981Z,12.18
2022-08-22T15:59:31.348Z,11.55
2022-08-22T16:02:30.448Z,12.32
2022-08-22T16:05:21.948Z,13.45
2022-08-22T16:07:59.600Z,11.50
2022-08-22T16:10:35.058Z,10.90
2022-08-22T16:13:13.929Z,11.27
2022-08-22T16:16:04.393Z,11.32
2022-08-22T16:19:14.383Z,10.50
2022-08-22T16:22:13.859Z,11.38
2022-08-22T16:25:10.465Z,11.68
2022-08-22T16:27:55.256Z,11.77
2022-08-22T16:30:40.120Z,11.18
2022-08-22T16:33:12.190Z,11.18
2022-08-22T16:36:21.355Z,12.55
2022-08-22T16:38:54.669Z,12.55
2022-08-22T16:41:32.909Z,12.88
2022-08-22T16:44:23.319Z,12.25
2022-08-22T16:46:54.063Z,11.85
2022-08-22T16:49:27.748Z,11.57
2022-08-22T16:52:24.673Z,12.57
2022-08-22T16:54:56.788Z,11.63
2022-08-22T16:57:37.511Z,11.95
2022-08-22T17:00:10.085Z,11.63
2022-08-22T17:03:00.176Z,12.90
2022-08-22T17:05:47.619Z,13.55
2022-08-22T17:08:30.846Z,12.80
2022-08-22T17:11:17.310Z,13.00
2022-08-22T17:14:07.813Z,12.25
2022-08-22T17:16:54.061Z,11.43
2022-08-22T17:19:44.170Z,11.95
2022-08-22T17:22:29.127Z,11.05
2022-08-22T17:25:12.727Z,11.32
2022-08-22T17:27:47.087Z,12.73
2022-08-22T17:30:22.978Z,12.57
2022-08-22T17:33:09.785Z,13.40
2022-08-22T17:35:47.251Z,11.90
2022-08-22T17:38:27.090Z,13.13
2022-08-22T17:41:04.419Z,13.23
2022-08-22T17:43:49.796Z,14.23
2022-08-22T17:46:36.225Z,12.68
2022-08-22T17:49:16.758Z,13.48
2022-08-22T17:51:53.187Z,14.05
2022-08-22T17:54:29.917Z,14.15
2022-08-22T17:57:05.927Z,13.30
2022-08-22T17:59:45.823Z,15.30
2022-08-22T18:02:17.330Z,14.00
2022-08-22T18:04:52.373Z,13.48
2022-08-22T18:07:39.038Z,14.48
2022-08-22T18:10:12.347Z,13.30
2022-08-22T18:12:45.952Z,12.98
2022-08-22T18:15:23.241Z,14.85
2022-08-22T18:17:56.599Z,11.32
2022-08-22T18:20:30.682Z,14.27
2022-08-22T18:23:03.541Z,14.93
2022-08-22T18:25:41.959Z,13.93
2022-08-22T18:28:21.898Z,13.55
2022-08-22T18:30:58.014Z,13.52
2022-08-22T18:33:32.905Z,13.35
2022-08-22T18:36:08.700Z,14.25
2022-08-22T18:38:49.083Z,13.98
2022-08-22T18:41:26.364Z,13.68
2022-08-22T18:43:54.375Z,12.48
2022-08-22T18:46:41.451Z,16.17
2022-08-22T18:49:32.065Z,14.70
2022-08-22T18:52:32.904Z,15.00
2022-08-22T18:55:20.048Z,12.65
2022-08-22T18:58:03.051Z,13.07
2022-08-22T19:00:52.597Z,12.80
2022-08-22T19:03:39.876Z,14.27
2022-08-22T19:06:37.109Z,14.80
2022-08-22T19:09:37.550Z,12.38
2022-08-22T19:12:19.856Z,12.70
2022-08-22T19:15:15.432Z,11.32
2022-08-22T19:18:03.945Z,12.07
2022-08-22T19:20:37.794Z,12.48
2022-08-22T19:23:42.222Z,11.93
2022-08-22T19:26:35.407Z,12.07
2022-08-22T19:29:10.835Z,11.95
2022-08-22T19:31:46.737Z,12.27
2022-08-22T19:34:33.713Z,11.50
2022-08-22T19:37:32.410Z,10.82
2022-08-22T19:40:02.684Z,12.60
2022-08-22T19:42:38.938Z,12.30
2022-08-22T19:45:18.807Z,11.27
2022-08-22T19:47:57.086Z,11.38
2022-08-22T19:50:31.078Z,10.88
2022-08-22T19:53:11.317Z,9.88
2022-08-22T19:55:54.911Z,8.35
2022-08-22T19:58:32.064Z,9.48
2022-08-22T20:01:24.628Z,10.35
2022-08-22T20:03:58.973Z,9.07
2022-08-22T20:06:48.018Z,9.23
2022-08-22T20:09:39.065Z,9.65
2022-08-22T20:12:15.468Z,9.48
2022-08-22T20:14:46.286Z,8.45
2022-08-22T20:17:30.414Z,8.80
2022-08-22T20:20:17.791Z,8.88
2022-08-22T20:22:52.955Z,7.55
2022-08-22T20:25:43.078Z,9.55
2022-08-22T20:28:34.522Z,8.70
2022-08-22T20:31:10.406Z,8.20
2022-08-22T20:33:42.002Z,8.07
2022-08-22T20:36:27.344Z,8.32
2022-08-22T20:39:00.034Z,8.15
2022-08-22T20:41:32.506Z,8.60
2022-08-22T20:44:06.155Z,8.23
2022-08-22T20:46:53.366Z,7.70
2022-08-22T20:49:24.884Z,9.32
2022-08-22T20:51:57.193Z,8.43
2022-08-22T20:56:55.393Z,8.05
2022-08-22T20:59:31.893Z,7.50
2022-08-22T21:02:07.601Z,8.07
2022-08-22T21:04:43.094Z,8.20
2022-08-22T21:07:11.964Z,8.70
2022-08-22T21:09:40.620Z,8.20
2022-08-22T21:12:08.273Z,9.02
2022-08-22T21:14:38.043Z,8.90
2022-08-22T21:17:25.094Z,9.35
2022-08-22T21:19:53.088Z,9.13
2022-08-22T21:22:29.239Z,9.25
2022-08-22T21:25:00.309Z,8.50
2022-08-22T21:27:30.943Z,8.75
2022-08-22T21:30:00.203Z,7.78
2022-08-22T21:32:34.004Z,7.03
2022-08-22T21:35:03.624Z,6.80
2022-08-22T21:37:37.828Z,7.05
2022-08-22T21:40:14.612Z,6.85
2022-08-22T21:42:44.752Z,7.65
2022-08-22T21:45:28.680Z,7.28
2022-08-22T21:47:56.598Z,7.18
2022-08-22T21:50:31.792Z,7.43
2022-08-22T21:53:10.171Z,7.75
2022-08-22T21:55:40.939Z,7.95
2022-08-22T21:58:12.688Z,8.10
2022-08-22T22:00:49.801Z,7.95
2022-08-22T22:03:19.571Z,8.68
2022-08-22T22:05:47.376Z,8.40
2022-08-22T22:08:17.013Z,8.70
2022-08-22T22:10:46.288Z,9.10
2022-08-22T22:13:14.479Z,9.77
2022-08-22T22:15:44.042Z,9.30
2022-08-22T22:18:12.492Z,10.05
2022-08-22T22:20:41.109Z,10.20
2022-08-22T22:23:08.862Z,9.70
2022-08-22T22:25:42.145Z,9.13
2022-08-22T22:28:14.433Z,10.13
2022-08-22T22:30:42.626Z,9.75
2022-08-22T22:33:10.461Z,10.27
2022-08-22T22:35:40.085Z,10.40
2022-08-22T22:38:07.850Z,10.80
2022-08-22T22:40:35.498Z,10.75
2022-08-22T22:43:04.773Z,9.88
2022-08-22T22:45:32.087Z,10.77
2022-08-22T22:47:59.899Z,11.05
2022-08-22T22:50:27.831Z,11.65
2022-08-22T22:52:55.089Z,10.10
2022-08-22T22:55:24.535Z,10.52
2022-08-22T22:57:58.747Z,11.32
2022-08-22T23:00:30.926Z,11.90
2022-08-22T23:03:00.169Z,11.68
2022-08-22T23:05:28.132Z,11.52
2022-08-22T23:07:55.540Z,11.20
2022-08-22T23:10:23.643Z,11.93
2022-08-22T23:12:50.858Z,10.63
2022-08-22T23:15:18.132Z,11.95
2022-08-22T23:17:47.207Z,11.65
2022-08-22T23:20:14.473Z,11.65
2022-08-22T23:22:43.674Z,11.98
2022-08-22T23:25:11.470Z,12.10
2022-08-22T23:27:38.947Z,12.75
2022-08-22T23:30:08.014Z,11.57
2022-08-22T23:32:36.015Z,11.05
2022-08-22T23:35:05.809Z,11.45
2022-08-22T23:37:32.998Z,11.48
2022-08-22T23:40:00.657Z,11.77
2022-08-22T23:42:28.059Z,11.63
2022-08-22T23:44:55.330Z,10.88
2022-08-22T23:47:22.956Z,11.52
2022-08-22T23:49:50.326Z,11.00
2022-08-22T23:52:19.103Z,10.88
2022-08-22T23:54:46.614Z,10.43
2022-08-22T23:57:14.518Z,11.85
2022-08-22T23:59:48.012Z,11.18
